Heat Index SAI AWOS Graphical Display Untitled Document
Bertrand Chaffee Hospital Heliport (2NK6) Springville, New York, USA
060
03:38
23/04/2018
00
N/A
N/A
30.37
N/A
1420
46(F), 8(C)
22(F), -6(C)
46 F
39%
CLR
10
N/A
0"
N/A
03:38 zulu Wind Calm, Altimeter 30.37
METAR K2NK6 230338Z AUTO 00000KT 10SM CLR 08/M06 A3037 A02 P0000
METAR:
FAA Disclaimer--Advisory Use ONLY, not for flight info--
INFO:
Wind Direction:
Wind Speed:
Wind Gust:
Wind Variable:
Altimeter:
Dens Alt:
Elev:
Temp:
Dwpt:
Wind Chill
Rel Humidity:
Ceiling:
Visibility:
Prsnt Wea:
PCPN:
Remarks:
How to read the WebPage